sensor_id;sensor_type;location;lat;lon;timestamp;P1;durP1;ratioP1;P2;durP2;ratioP2
13872;SDS011;7006;51.494;11.964;2023-08-20T00:01:18;12.47;;;9.03;;
13872;SDS011;7006;51.494;11.964;2023-08-20T00:03:47;13.40;;;9.33;;
13872;SDS011;7006;51.494;11.964;2023-08-20T00:06:15;11.43;;;9.60;;
13872;SDS011;7006;51.494;11.964;2023-08-20T00:08:44;10.90;;;9.40;;
13872;SDS011;7006;51.494;11.964;2023-08-20T00:11:12;12.70;;;9.77;;
13872;SDS011;7006;51.494;11.964;2023-08-20T00:13:40;10.50;;;9.33;;
13872;SDS011;7006;51.494;11.964;2023-08-20T00:16:11;12.60;;;9.00;;
13872;SDS011;7006;51.494;11.964;2023-08-20T00:18:40;11.60;;;10.23;;
13872;SDS011;7006;51.494;11.964;2023-08-20T00:21:08;10.83;;;9.40;;
13872;SDS011;7006;51.494;11.964;2023-08-20T00:23:37;11.50;;;8.80;;
13872;SDS011;7006;51.494;11.964;2023-08-20T00:26:05;11.40;;;10.30;;
13872;SDS011;7006;51.494;11.964;2023-08-20T00:28:33;11.60;;;9.00;;
13872;SDS011;7006;51.494;11.964;2023-08-20T00:31:03;15.43;;;9.67;;
13872;SDS011;7006;51.494;11.964;2023-08-20T00:33:34;12.97;;;9.73;;
13872;SDS011;7006;51.494;11.964;2023-08-20T00:36:03;10.60;;;9.50;;
13872;SDS011;7006;51.494;11.964;2023-08-20T00:38:31;13.13;;;10.00;;
13872;SDS011;7006;51.494;11.964;2023-08-20T00:40:59;13.03;;;11.53;;
13872;SDS011;7006;51.494;11.964;2023-08-20T00:43:27;13.27;;;11.53;;
13872;SDS011;7006;51.494;11.964;2023-08-20T00:45:56;11.30;;;10.20;;
13872;SDS011;7006;51.494;11.964;2023-08-20T00:48:24;11.70;;;10.60;;
13872;SDS011;7006;51.494;11.964;2023-08-20T00:50:55;13.67;;;12.00;;
13872;SDS011;7006;51.494;11.964;2023-08-20T00:53:23;12.43;;;11.13;;
13872;SDS011;7006;51.494;11.964;2023-08-20T00:55:51;15.23;;;12.50;;
13872;SDS011;7006;51.494;11.964;2023-08-20T00:58:19;14.90;;;11.70;;
13872;SDS011;7006;51.494;11.964;2023-08-20T01:00:47;11.90;;;10.80;;
13872;SDS011;7006;51.494;11.964;2023-08-20T01:03:15;12.50;;;11.20;;
13872;SDS011;7006;51.494;11.964;2023-08-20T01:05:44;12.90;;;11.50;;
13872;SDS011;7006;51.494;11.964;2023-08-20T01:08:19;12.33;;;11.10;;
13872;SDS011;7006;51.494;11.964;2023-08-20T01:10:52;14.23;;;11.50;;
13872;SDS011;7006;51.494;11.964;2023-08-20T01:13:22;13.10;;;10.93;;
13872;SDS011;7006;51.494;11.964;2023-08-20T01:15:50;12.30;;;11.20;;
13872;SDS011;7006;51.494;11.964;2023-08-20T01:18:18;14.73;;;11.77;;
13872;SDS011;7006;51.494;11.964;2023-08-20T01:20:47;12.97;;;11.57;;
13872;SDS011;7006;51.494;11.964;2023-08-20T01:23:39;12.13;;;10.93;;
13872;SDS011;7006;51.494;11.964;2023-08-20T01:26:17;14.07;;;10.33;;
13872;SDS011;7006;51.494;11.964;2023-08-20T01:28:51;13.00;;;11.70;;
13872;SDS011;7006;51.494;11.964;2023-08-20T01:31:20;14.00;;;11.23;;
13872;SDS011;7006;51.494;11.964;2023-08-20T01:33:48;11.90;;;10.50;;
13872;SDS011;7006;51.494;11.964;2023-08-20T01:36:16;16.33;;;12.37;;
13872;SDS011;7006;51.494;11.964;2023-08-20T01:38:44;12.43;;;10.90;;
13872;SDS011;7006;51.494;11.964;2023-08-20T01:41:12;13.00;;;11.80;;
13872;SDS011;7006;51.494;11.964;2023-08-20T01:43:40;14.50;;;11.77;;
13872;SDS011;7006;51.494;11.964;2023-08-20T01:46:11;12.20;;;10.90;;
13872;SDS011;7006;51.494;11.964;2023-08-20T01:48:39;11.87;;;10.67;;
13872;SDS011;7006;51.494;11.964;2023-08-20T01:51:07;13.13;;;11.73;;
13872;SDS011;7006;51.494;11.964;2023-08-20T01:53:36;13.10;;;11.43;;
13872;SDS011;7006;51.494;11.964;2023-08-20T01:56:04;13.80;;;12.20;;
13872;SDS011;7006;51.494;11.964;2023-08-20T01:58:32;14.33;;;12.20;;
13872;SDS011;7006;51.494;11.964;2023-08-20T02:01:00;13.97;;;12.57;;
13872;SDS011;7006;51.494;11.964;2023-08-20T02:03:31;15.10;;;12.20;;
13872;SDS011;7006;51.494;11.964;2023-08-20T02:05:59;17.80;;;13.00;;
13872;SDS011;7006;51.494;11.964;2023-08-20T02:08:27;15.97;;;13.23;;
13872;SDS011;7006;51.494;11.964;2023-08-20T02:10:59;15.33;;;13.83;;
13872;SDS011;7006;51.494;11.964;2023-08-20T02:13:27;15.73;;;13.10;;
13872;SDS011;7006;51.494;11.964;2023-08-20T02:15:59;16.03;;;14.00;;
13872;SDS011;7006;51.494;11.964;2023-08-20T02:18:27;15.17;;;13.67;;
13872;SDS011;7006;51.494;11.964;2023-08-20T02:20:58;16.23;;;14.27;;
13872;SDS011;7006;51.494;11.964;2023-08-20T02:23:26;17.53;;;15.33;;
13872;SDS011;7006;51.494;11.964;2023-08-20T02:25:54;18.33;;;16.37;;
13872;SDS011;7006;51.494;11.964;2023-08-20T02:28:23;20.70;;;15.90;;
13872;SDS011;7006;51.494;11.964;2023-08-20T02:30:51;19.27;;;17.27;;
13872;SDS011;7006;51.494;11.964;2023-08-20T02:33:20;18.77;;;16.87;;
13872;SDS011;7006;51.494;11.964;2023-08-20T02:35:48;20.73;;;18.73;;
13872;SDS011;7006;51.494;11.964;2023-08-20T02:38:18;23.37;;;19.53;;
13872;SDS011;7006;51.494;11.964;2023-08-20T02:40:46;20.40;;;18.20;;
13872;SDS011;7006;51.494;11.964;2023-08-20T02:43:14;21.83;;;19.33;;
13872;SDS011;7006;51.494;11.964;2023-08-20T02:45:43;23.53;;;20.90;;
13872;SDS011;7006;51.494;11.964;2023-08-20T02:48:11;21.47;;;19.07;;
13872;SDS011;7006;51.494;11.964;2023-08-20T02:50:40;23.80;;;21.40;;
13872;SDS011;7006;51.494;11.964;2023-08-20T02:53:08;23.40;;;20.57;;
13872;SDS011;7006;51.494;11.964;2023-08-20T02:55:38;26.47;;;21.93;;
13872;SDS011;7006;51.494;11.964;2023-08-20T02:58:07;26.57;;;21.17;;
13872;SDS011;7006;51.494;11.964;2023-08-20T03:00:35;24.20;;;21.80;;
13872;SDS011;7006;51.494;11.964;2023-08-20T03:03:04;22.33;;;19.93;;
13872;SDS011;7006;51.494;11.964;2023-08-20T03:05:33;23.57;;;21.17;;
13872;SDS011;7006;51.494;11.964;2023-08-20T03:08:01;25.00;;;22.37;;
13872;SDS011;7006;51.494;11.964;2023-08-20T03:10:30;24.23;;;21.73;;
13872;SDS011;7006;51.494;11.964;2023-08-20T03:13:01;23.70;;;21.20;;
13872;SDS011;7006;51.494;11.964;2023-08-20T03:15:30;24.87;;;22.30;;
13872;SDS011;7006;51.494;11.964;2023-08-20T03:17:58;24.10;;;20.20;;
13872;SDS011;7006;51.494;11.964;2023-08-20T03:20:26;24.83;;;22.43;;
13872;SDS011;7006;51.494;11.964;2023-08-20T03:22:56;24.10;;;21.60;;
13872;SDS011;7006;51.494;11.964;2023-08-20T03:25:24;23.10;;;20.80;;
13872;SDS011;7006;51.494;11.964;2023-08-20T03:27:52;26.87;;;23.20;;
13872;SDS011;7006;51.494;11.964;2023-08-20T03:30:23;24.87;;;22.27;;
13872;SDS011;7006;51.494;11.964;2023-08-20T03:32:51;27.50;;;24.80;;
13872;SDS011;7006;51.494;11.964;2023-08-20T03:35:19;29.33;;;26.03;;
13872;SDS011;7006;51.494;11.964;2023-08-20T03:37:47;30.37;;;26.80;;
13872;SDS011;7006;51.494;11.964;2023-08-20T03:40:15;29.50;;;26.17;;
13872;SDS011;7006;51.494;11.964;2023-08-20T03:42:43;30.53;;;27.43;;
13872;SDS011;7006;51.494;11.964;2023-08-20T03:45:11;29.57;;;25.90;;
13872;SDS011;7006;51.494;11.964;2023-08-20T03:47:42;34.27;;;28.67;;
13872;SDS011;7006;51.494;11.964;2023-08-20T03:50:12;33.03;;;27.17;;
13872;SDS011;7006;51.494;11.964;2023-08-20T03:52:40;30.33;;;27.23;;
13872;SDS011;7006;51.494;11.964;2023-08-20T03:55:08;35.13;;;28.93;;
13872;SDS011;7006;51.494;11.964;2023-08-20T03:57:36;33.20;;;29.37;;
13872;SDS011;7006;51.494;11.964;2023-08-20T04:00:05;33.23;;;29.67;;
13872;SDS011;7006;51.494;11.964;2023-08-20T04:02:37;34.60;;;30.90;;
13872;SDS011;7006;51.494;11.964;2023-08-20T04:05:08;33.40;;;29.80;;
13872;SDS011;7006;51.494;11.964;2023-08-20T04:07:36;33.20;;;29.60;;
13872;SDS011;7006;51.494;11.964;2023-08-20T04:10:04;32.23;;;29.00;;
13872;SDS011;7006;51.494;11.964;2023-08-20T04:12:33;29.87;;;26.53;;
13872;SDS011;7006;51.494;11.964;2023-08-20T04:15:01;32.50;;;29.20;;
13872;SDS011;7006;51.494;11.964;2023-08-20T04:17:29;31.23;;;28.03;;
13872;SDS011;7006;51.494;11.964;2023-08-20T04:19:57;29.33;;;26.37;;
13872;SDS011;7006;51.494;11.964;2023-08-20T04:22:28;32.00;;;28.50;;
13872;SDS011;7006;51.494;11.964;2023-08-20T04:24:56;29.60;;;25.87;;
13872;SDS011;7006;51.494;11.964;2023-08-20T04:27:24;30.50;;;26.53;;
13872;SDS011;7006;51.494;11.964;2023-08-20T04:29:52;29.20;;;25.97;;
13872;SDS011;7006;51.494;11.964;2023-08-20T04:32:20;30.00;;;27.00;;
13872;SDS011;7006;51.494;11.964;2023-08-20T04:34:48;36.13;;;27.40;;
13872;SDS011;7006;51.494;11.964;2023-08-20T04:37:18;29.63;;;26.53;;
13872;SDS011;7006;51.494;11.964;2023-08-20T04:39:48;31.47;;;28.07;;
13872;SDS011;7006;51.494;11.964;2023-08-20T04:42:16;29.43;;;25.47;;
13872;SDS011;7006;51.494;11.964;2023-08-20T04:44:45;33.40;;;27.60;;
13872;SDS011;7006;51.494;11.964;2023-08-20T04:47:13;27.67;;;24.77;;
13872;SDS011;7006;51.494;11.964;2023-08-20T04:49:41;35.47;;;27.80;;
13872;SDS011;7006;51.494;11.964;2023-08-20T04:52:09;32.30;;;26.50;;
13872;SDS011;7006;51.494;11.964;2023-08-20T04:54:37;31.13;;;26.80;;
13872;SDS011;7006;51.494;11.964;2023-08-20T04:57:07;28.60;;;25.60;;
13872;SDS011;7006;51.494;11.964;2023-08-20T04:59:35;27.80;;;24.90;;
13872;SDS011;7006;51.494;11.964;2023-08-20T05:02:03;27.43;;;24.53;;
13872;SDS011;7006;51.494;11.964;2023-08-20T05:04:31;28.37;;;25.37;;
13872;SDS011;7006;51.494;11.964;2023-08-20T05:07:00;28.00;;;25.13;;
13872;SDS011;7006;51.494;11.964;2023-08-20T05:09:28;30.03;;;26.60;;
13872;SDS011;7006;51.494;11.964;2023-08-20T05:11:56;28.33;;;25.33;;
13872;SDS011;7006;51.494;11.964;2023-08-20T05:14:27;28.40;;;25.40;;
13872;SDS011;7006;51.494;11.964;2023-08-20T05:16:55;28.60;;;24.90;;
13872;SDS011;7006;51.494;11.964;2023-08-20T05:19:23;29.37;;;25.20;;
13872;SDS011;7006;51.494;11.964;2023-08-20T05:21:51;28.90;;;24.90;;
13872;SDS011;7006;51.494;11.964;2023-08-20T05:24:21;28.80;;;25.77;;
13872;SDS011;7006;51.494;11.964;2023-08-20T05:26:49;28.57;;;25.70;;
13872;SDS011;7006;51.494;11.964;2023-08-20T05:29:33;29.83;;;26.57;;
13872;SDS011;7006;51.494;11.964;2023-08-20T05:32:01;28.40;;;25.40;;
13872;SDS011;7006;51.494;11.964;2023-08-20T05:34:29;27.35;;;24.33;;
13872;SDS011;7006;51.494;11.964;2023-08-20T05:36:57;29.13;;;25.30;;
13872;SDS011;7006;51.494;11.964;2023-08-20T05:39:26;31.27;;;27.88;;
13872;SDS011;7006;51.494;11.964;2023-08-20T05:41:54;30.43;;;27.23;;
13872;SDS011;7006;51.494;11.964;2023-08-20T05:44:22;28.53;;;25.63;;
13872;SDS011;7006;51.494;11.964;2023-08-20T05:46:53;27.27;;;24.37;;
13872;SDS011;7006;51.494;11.964;2023-08-20T05:49:21;28.57;;;25.60;;
13872;SDS011;7006;51.494;11.964;2023-08-20T05:51:49;27.17;;;24.30;;
13872;SDS011;7006;51.494;11.964;2023-08-20T05:54:17;26.80;;;24.00;;
13872;SDS011;7006;51.494;11.964;2023-08-20T05:56:45;29.60;;;25.83;;
13872;SDS011;7006;51.494;11.964;2023-08-20T05:59:13;29.80;;;25.77;;
13872;SDS011;7006;51.494;11.964;2023-08-20T06:01:41;27.50;;;23.60;;
13872;SDS011;7006;51.494;11.964;2023-08-20T06:04:12;27.90;;;25.07;;
13872;SDS011;7006;51.494;11.964;2023-08-20T06:06:40;27.10;;;24.13;;
13872;SDS011;7006;51.494;11.964;2023-08-20T06:09:08;25.50;;;22.90;;
13872;SDS011;7006;51.494;11.964;2023-08-20T06:11:36;25.93;;;23.17;;
13872;SDS011;7006;51.494;11.964;2023-08-20T06:14:04;27.17;;;23.40;;
13872;SDS011;7006;51.494;11.964;2023-08-20T06:16:32;26.57;;;23.87;;
13872;SDS011;7006;51.494;11.964;2023-08-20T06:19:00;27.20;;;24.40;;
13872;SDS011;7006;51.494;11.964;2023-08-20T06:21:31;28.43;;;23.90;;
13872;SDS011;7006;51.494;11.964;2023-08-20T06:24:00;26.40;;;23.53;;
13872;SDS011;7006;51.494;11.964;2023-08-20T06:26:28;27.07;;;22.70;;
13872;SDS011;7006;51.494;11.964;2023-08-20T06:28:56;25.53;;;22.83;;
13872;SDS011;7006;51.494;11.964;2023-08-20T06:31:24;27.90;;;23.63;;
13872;SDS011;7006;51.494;11.964;2023-08-20T06:33:52;27.10;;;24.20;;
13872;SDS011;7006;51.494;11.964;2023-08-20T06:36:20;25.90;;;23.13;;
13872;SDS011;7006;51.494;11.964;2023-08-20T06:38:51;25.57;;;22.97;;
13872;SDS011;7006;51.494;11.964;2023-08-20T06:41:19;27.40;;;23.37;;
13872;SDS011;7006;51.494;11.964;2023-08-20T06:43:48;27.83;;;23.80;;
13872;SDS011;7006;51.494;11.964;2023-08-20T06:46:16;24.87;;;22.57;;
13872;SDS011;7006;51.494;11.964;2023-08-20T06:48:44;23.90;;;21.40;;
13872;SDS011;7006;51.494;11.964;2023-08-20T06:51:12;24.00;;;19.90;;
13872;SDS011;7006;51.494;11.964;2023-08-20T06:53:40;25.87;;;21.70;;
13872;SDS011;7006;51.494;11.964;2023-08-20T06:56:11;23.50;;;20.93;;
13872;SDS011;7006;51.494;11.964;2023-08-20T06:58:40;23.93;;;21.33;;
13872;SDS011;7006;51.494;11.964;2023-08-20T07:01:08;24.80;;;21.50;;
13872;SDS011;7006;51.494;11.964;2023-08-20T07:03:38;25.20;;;21.67;;
13872;SDS011;7006;51.494;11.964;2023-08-20T07:06:06;25.20;;;21.27;;
13872;SDS011;7006;51.494;11.964;2023-08-20T07:08:35;22.93;;;20.53;;
13872;SDS011;7006;51.494;11.964;2023-08-20T07:11:04;24.37;;;21.77;;
13872;SDS011;7006;51.494;11.964;2023-08-20T07:13:35;23.90;;;21.33;;
13872;SDS011;7006;51.494;11.964;2023-08-20T07:16:03;22.63;;;20.33;;
13872;SDS011;7006;51.494;11.964;2023-08-20T07:18:31;22.70;;;20.30;;
13872;SDS011;7006;51.494;11.964;2023-08-20T07:20:59;22.00;;;19.80;;
13872;SDS011;7006;51.494;11.964;2023-08-20T07:23:28;22.60;;;20.20;;
13872;SDS011;7006;51.494;11.964;2023-08-20T07:26:03;22.70;;;19.27;;
13872;SDS011;7006;51.494;11.964;2023-08-20T07:28:31;23.13;;;20.60;;
13872;SDS011;7006;51.494;11.964;2023-08-20T07:31:14;21.63;;;19.43;;
13872;SDS011;7006;51.494;11.964;2023-08-20T07:33:45;23.20;;;18.90;;
13872;SDS011;7006;51.494;11.964;2023-08-20T07:36:13;25.27;;;18.03;;
13872;SDS011;7006;51.494;11.964;2023-08-20T07:38:42;19.20;;;16.90;;
13872;SDS011;7006;51.494;11.964;2023-08-20T07:41:10;19.30;;;17.00;;
13872;SDS011;7006;51.494;11.964;2023-08-20T07:43:38;16.27;;;14.53;;
13872;SDS011;7006;51.494;11.964;2023-08-20T07:46:07;16.27;;;14.67;;
13872;SDS011;7006;51.494;11.964;2023-08-20T07:48:38;15.53;;;14.03;;
13872;SDS011;7006;51.494;11.964;2023-08-20T07:51:06;14.90;;;13.40;;
13872;SDS011;7006;51.494;11.964;2023-08-20T07:53:35;15.50;;;14.00;;
13872;SDS011;7006;51.494;11.964;2023-08-20T07:56:04;14.83;;;13.27;;
13872;SDS011;7006;51.494;11.964;2023-08-20T07:58:32;18.70;;;14.37;;
13872;SDS011;7006;51.494;11.964;2023-08-20T08:01:00;16.73;;;13.80;;
13872;SDS011;7006;51.494;11.964;2023-08-20T08:03:28;15.23;;;13.73;;
13872;SDS011;7006;51.494;11.964;2023-08-20T08:05:59;14.10;;;12.80;;
13872;SDS011;7006;51.494;11.964;2023-08-20T08:08:27;15.30;;;13.77;;
13872;SDS011;7006;51.494;11.964;2023-08-20T08:10:55;17.33;;;15.60;;
13872;SDS011;7006;51.494;11.964;2023-08-20T08:13:23;18.73;;;16.93;;
13872;SDS011;7006;51.494;11.964;2023-08-20T08:15:51;18.13;;;16.23;;
13872;SDS011;7006;51.494;11.964;2023-08-20T08:18:20;19.07;;;17.33;;
13872;SDS011;7006;51.494;11.964;2023-08-20T08:20:48;22.67;;;20.47;;
13872;SDS011;7006;51.494;11.964;2023-08-20T08:23:19;20.13;;;18.23;;
13872;SDS011;7006;51.494;11.964;2023-08-20T08:25:47;20.40;;;18.20;;
13872;SDS011;7006;51.494;11.964;2023-08-20T08:28:15;20.13;;;18.03;;
13872;SDS011;7006;51.494;11.964;2023-08-20T08:30:45;20.13;;;17.87;;
13872;SDS011;7006;51.494;11.964;2023-08-20T08:33:13;21.50;;;19.20;;
13872;SDS011;7006;51.494;11.964;2023-08-20T08:35:41;18.00;;;16.20;;
13872;SDS011;7006;51.494;11.964;2023-08-20T08:38:09;17.73;;;16.00;;
13872;SDS011;7006;51.494;11.964;2023-08-20T08:40:40;17.23;;;15.63;;
13872;SDS011;7006;51.494;11.964;2023-08-20T08:43:08;16.97;;;15.37;;
13872;SDS011;7006;51.494;11.964;2023-08-20T08:45:41;16.33;;;14.73;;
13872;SDS011;7006;51.494;11.964;2023-08-20T08:48:11;15.77;;;13.97;;
13872;SDS011;7006;51.494;11.964;2023-08-20T08:50:39;16.30;;;14.60;;
13872;SDS011;7006;51.494;11.964;2023-08-20T08:53:07;15.40;;;13.90;;
13872;SDS011;7006;51.494;11.964;2023-08-20T08:55:36;14.37;;;13.07;;
13872;SDS011;7006;51.494;11.964;2023-08-20T08:58:07;16.70;;;15.00;;
13872;SDS011;7006;51.494;11.964;2023-08-20T09:00:35;17.37;;;15.80;;
13872;SDS011;7006;51.494;11.964;2023-08-20T09:03:03;16.53;;;14.83;;
13872;SDS011;7006;51.494;11.964;2023-08-20T09:05:31;15.17;;;13.87;;
13872;SDS011;7006;51.494;11.964;2023-08-20T09:08:00;17.00;;;15.40;;
13872;SDS011;7006;51.494;11.964;2023-08-20T09:10:28;17.60;;;16.00;;
13872;SDS011;7006;51.494;11.964;2023-08-20T09:12:56;19.37;;;17.47;;
13872;SDS011;7006;51.494;11.964;2023-08-20T09:15:32;19.37;;;17.50;;
13872;SDS011;7006;51.494;11.964;2023-08-20T09:18:01;18.60;;;16.80;;
13872;SDS011;7006;51.494;11.964;2023-08-20T09:20:35;18.03;;;16.33;;
13872;SDS011;7006;51.494;11.964;2023-08-20T09:23:04;18.17;;;16.37;;
13872;SDS011;7006;51.494;11.964;2023-08-20T09:25:38;19.27;;;17.03;;
13872;SDS011;7006;51.494;11.964;2023-08-20T09:28:06;18.90;;;16.90;;
13872;SDS011;7006;51.494;11.964;2023-08-20T09:30:37;17.20;;;15.67;;
13872;SDS011;7006;51.494;11.964;2023-08-20T09:33:07;16.70;;;15.00;;
13872;SDS011;7006;51.494;11.964;2023-08-20T09:35:35;16.07;;;14.57;;
13872;SDS011;7006;51.494;11.964;2023-08-20T09:38:04;15.87;;;14.27;;
13872;SDS011;7006;51.494;11.964;2023-08-20T09:40:32;15.53;;;14.03;;
13872;SDS011;7006;51.494;11.964;2023-08-20T09:43:00;15.47;;;13.93;;
13872;SDS011;7006;51.494;11.964;2023-08-20T09:45:29;16.10;;;14.60;;
13872;SDS011;7006;51.494;11.964;2023-08-20T09:47:59;14.67;;;13.23;;
13872;SDS011;7006;51.494;11.964;2023-08-20T09:50:28;15.67;;;12.90;;
13872;SDS011;7006;51.494;11.964;2023-08-20T09:53:03;16.63;;;13.90;;
13872;SDS011;7006;51.494;11.964;2023-08-20T09:55:32;14.20;;;13.00;;
13872;SDS011;7006;51.494;11.964;2023-08-20T09:58:01;14.57;;;12.70;;
13872;SDS011;7006;51.494;11.964;2023-08-20T10:00:30;13.60;;;12.30;;
13872;SDS011;7006;51.494;11.964;2023-08-20T10:03:01;14.87;;;13.47;;
13872;SDS011;7006;51.494;11.964;2023-08-20T10:05:29;12.47;;;11.17;;
13872;SDS011;7006;51.494;11.964;2023-08-20T10:07:59;13.53;;;12.30;;
13872;SDS011;7006;51.494;11.964;2023-08-20T10:10:28;14.40;;;13.10;;
13872;SDS011;7006;51.494;11.964;2023-08-20T10:12:57;14.20;;;12.70;;
13872;SDS011;7006;51.494;11.964;2023-08-20T10:15:25;13.87;;;12.07;;
13872;SDS011;7006;51.494;11.964;2023-08-20T10:17:55;12.00;;;11.00;;
13872;SDS011;7006;51.494;11.964;2023-08-20T10:20:27;11.83;;;10.73;;
13872;SDS011;7006;51.494;11.964;2023-08-20T10:23:00;12.30;;;11.00;;
13872;SDS011;7006;51.494;11.964;2023-08-20T10:25:29;12.77;;;11.57;;
13872;SDS011;7006;51.494;11.964;2023-08-20T10:28:10;13.10;;;11.80;;
13872;SDS011;7006;51.494;11.964;2023-08-20T10:30:39;12.07;;;11.07;;
13872;SDS011;7006;51.494;11.964;2023-08-20T10:33:27;12.90;;;11.70;;
13872;SDS011;7006;51.494;11.964;2023-08-20T10:35:59;13.23;;;11.90;;
13872;SDS011;7006;51.494;11.964;2023-08-20T10:38:35;12.80;;;11.67;;
13872;SDS011;7006;51.494;11.964;2023-08-20T10:41:05;15.50;;;13.83;;
13872;SDS011;7006;51.494;11.964;2023-08-20T10:43:34;13.40;;;12.10;;
13872;SDS011;7006;51.494;11.964;2023-08-20T10:46:03;13.10;;;11.90;;
13872;SDS011;7006;51.494;11.964;2023-08-20T10:48:29;14.47;;;13.07;;
13872;SDS011;7006;51.494;11.964;2023-08-20T10:51:01;15.20;;;13.70;;
13872;SDS011;7006;51.494;11.964;2023-08-20T10:53:33;13.90;;;12.60;;
13872;SDS011;7006;51.494;11.964;2023-08-20T10:56:11;15.37;;;14.07;;
13872;SDS011;7006;51.494;11.964;2023-08-20T10:58:44;15.00;;;13.50;;
13872;SDS011;7006;51.494;11.964;2023-08-20T11:01:15;15.90;;;14.40;;
13872;SDS011;7006;51.494;11.964;2023-08-20T11:03:41;15.70;;;14.20;;
13872;SDS011;7006;51.494;11.964;2023-08-20T11:06:12;14.13;;;12.83;;
13872;SDS011;7006;51.494;11.964;2023-08-20T11:08:41;14.87;;;13.53;;
13872;SDS011;7006;51.494;11.964;2023-08-20T11:11:09;15.20;;;13.70;;
13872;SDS011;7006;51.494;11.964;2023-08-20T11:13:38;15.37;;;14.07;;
13872;SDS011;7006;51.494;11.964;2023-08-20T11:16:08;13.83;;;12.63;;
13872;SDS011;7006;51.494;11.964;2023-08-20T11:18:36;15.77;;;14.37;;
13872;SDS011;7006;51.494;11.964;2023-08-20T11:21:04;15.43;;;14.13;;
13872;SDS011;7006;51.494;11.964;2023-08-20T11:23:35;14.93;;;13.63;;
13872;SDS011;7006;51.494;11.964;2023-08-20T11:26:05;15.93;;;14.43;;
13872;SDS011;7006;51.494;11.964;2023-08-20T11:28:33;15.97;;;14.57;;
13872;SDS011;7006;51.494;11.964;2023-08-20T11:31:01;18.13;;;16.43;;
13872;SDS011;7006;51.494;11.964;2023-08-20T11:33:30;16.40;;;14.80;;
13872;SDS011;7006;51.494;11.964;2023-08-20T11:35:58;16.70;;;15.10;;
13872;SDS011;7006;51.494;11.964;2023-08-20T11:38:27;17.53;;;15.80;;
13872;SDS011;7006;51.494;11.964;2023-08-20T11:41:00;16.33;;;14.73;;
13872;SDS011;7006;51.494;11.964;2023-08-20T11:43:28;17.43;;;15.93;;
13872;SDS011;7006;51.494;11.964;2023-08-20T11:45:57;17.90;;;16.20;;
13872;SDS011;7006;51.494;11.964;2023-08-20T11:48:25;17.90;;;16.30;;
13872;SDS011;7006;51.494;11.964;2023-08-20T11:50:55;17.23;;;15.73;;
13872;SDS011;7006;51.494;11.964;2023-08-20T11:53:25;16.53;;;15.13;;
13872;SDS011;7006;51.494;11.964;2023-08-20T11:55:56;17.80;;;16.10;;
13872;SDS011;7006;51.494;11.964;2023-08-20T11:58:28;16.73;;;15.17;;
13872;SDS011;7006;51.494;11.964;2023-08-20T12:00:56;17.60;;;15.90;;
13872;SDS011;7006;51.494;11.964;2023-08-20T12:03:28;19.20;;;17.30;;
13872;SDS011;7006;51.494;11.964;2023-08-20T12:05:57;17.93;;;16.23;;
13872;SDS011;7006;51.494;11.964;2023-08-20T12:08:25;17.90;;;16.13;;
13872;SDS011;7006;51.494;11.964;2023-08-20T12:10:53;16.27;;;14.87;;
13872;SDS011;7006;51.494;11.964;2023-08-20T12:13:28;17.00;;;15.60;;
13872;SDS011;7006;51.494;11.964;2023-08-20T12:15:56;18.30;;;16.47;;
13872;SDS011;7006;51.494;11.964;2023-08-20T12:18:24;16.10;;;14.70;;
13872;SDS011;7006;51.494;11.964;2023-08-20T12:20:52;18.00;;;16.20;;
13872;SDS011;7006;51.494;11.964;2023-08-20T12:23:21;17.60;;;15.97;;
13872;SDS011;7006;51.494;11.964;2023-08-20T12:25:49;18.43;;;16.73;;
13872;SDS011;7006;51.494;11.964;2023-08-20T12:28:18;15.80;;;14.40;;
13872;SDS011;7006;51.494;11.964;2023-08-20T12:30:49;15.13;;;13.73;;
13872;SDS011;7006;51.494;11.964;2023-08-20T12:33:17;17.30;;;15.60;;
13872;SDS011;7006;51.494;11.964;2023-08-20T12:35:46;16.33;;;14.77;;
13872;SDS011;7006;51.494;11.964;2023-08-20T12:38:14;16.27;;;14.77;;
13872;SDS011;7006;51.494;11.964;2023-08-20T12:40:42;17.03;;;15.40;;
13872;SDS011;7006;51.494;11.964;2023-08-20T12:43:10;16.80;;;15.20;;
13872;SDS011;7006;51.494;11.964;2023-08-20T12:45:38;17.10;;;15.43;;
13872;SDS011;7006;51.494;11.964;2023-08-20T12:48:09;16.20;;;14.60;;
13872;SDS011;7006;51.494;11.964;2023-08-20T12:50:37;15.37;;;13.73;;
13872;SDS011;7006;51.494;11.964;2023-08-20T12:53:05;15.33;;;13.73;;
13872;SDS011;7006;51.494;11.964;2023-08-20T12:55:34;16.23;;;14.83;;
13872;SDS011;7006;51.494;11.964;2023-08-20T12:58:02;15.33;;;14.03;;
13872;SDS011;7006;51.494;11.964;2023-08-20T13:00:30;15.97;;;14.57;;
13872;SDS011;7006;51.494;11.964;2023-08-20T13:02:58;13.93;;;12.77;;
13872;SDS011;7006;51.494;11.964;2023-08-20T13:05:30;14.47;;;13.07;;
13872;SDS011;7006;51.494;11.964;2023-08-20T13:07:58;15.47;;;14.03;;
13872;SDS011;7006;51.494;11.964;2023-08-20T13:10:27;14.90;;;13.60;;
13872;SDS011;7006;51.494;11.964;2023-08-20T13:12:56;14.67;;;13.27;;
13872;SDS011;7006;51.494;11.964;2023-08-20T13:15:26;15.73;;;14.30;;
13872;SDS011;7006;51.494;11.964;2023-08-20T13:17:55;16.60;;;14.87;;
13872;SDS011;7006;51.494;11.964;2023-08-20T13:20:23;14.57;;;13.30;;
13872;SDS011;7006;51.494;11.964;2023-08-20T13:22:55;15.40;;;13.90;;
13872;SDS011;7006;51.494;11.964;2023-08-20T13:25:23;16.27;;;13.97;;
13872;SDS011;7006;51.494;11.964;2023-08-20T13:27:51;14.60;;;13.40;;
13872;SDS011;7006;51.494;11.964;2023-08-20T13:30:19;14.20;;;13.00;;
13872;SDS011;7006;51.494;11.964;2023-08-20T13:32:47;13.60;;;12.40;;
13872;SDS011;7006;51.494;11.964;2023-08-20T13:35:15;14.40;;;13.10;;
13872;SDS011;7006;51.494;11.964;2023-08-20T13:37:43;12.90;;;11.60;;
13872;SDS011;7006;51.494;11.964;2023-08-20T13:40:14;14.20;;;12.90;;
13872;SDS011;7006;51.494;11.964;2023-08-20T13:42:42;15.83;;;14.27;;
13872;SDS011;7006;51.494;11.964;2023-08-20T13:45:10;14.40;;;13.10;;
13872;SDS011;7006;51.494;11.964;2023-08-20T13:47:38;11.73;;;10.57;;
13872;SDS011;7006;51.494;11.964;2023-08-20T13:50:08;12.40;;;11.20;;
13872;SDS011;7006;51.494;11.964;2023-08-20T13:52:36;12.07;;;11.07;;
13872;SDS011;7006;51.494;11.964;2023-08-20T13:55:05;11.53;;;10.53;;
13872;SDS011;7006;51.494;11.964;2023-08-20T13:57:36;12.37;;;11.17;;
13872;SDS011;7006;51.494;11.964;2023-08-20T14:00:04;11.70;;;10.70;;
13872;SDS011;7006;51.494;11.964;2023-08-20T14:02:36;13.20;;;12.10;;
13872;SDS011;7006;51.494;11.964;2023-08-20T14:05:05;12.63;;;11.53;;
13872;SDS011;7006;51.494;11.964;2023-08-20T14:07:33;11.50;;;10.50;;
13872;SDS011;7006;51.494;11.964;2023-08-20T14:10:01;12.87;;;11.57;;
13872;SDS011;7006;51.494;11.964;2023-08-20T14:12:30;12.33;;;11.10;;
13872;SDS011;7006;51.494;11.964;2023-08-20T14:15:00;12.13;;;11.07;;
13872;SDS011;7006;51.494;11.964;2023-08-20T14:17:28;11.70;;;10.50;;
13872;SDS011;7006;51.494;11.964;2023-08-20T14:19:56;12.87;;;11.60;;
13872;SDS011;7006;51.494;11.964;2023-08-20T14:22:25;11.30;;;10.23;;
13872;SDS011;7006;51.494;11.964;2023-08-20T14:24:53;11.37;;;10.37;;
13872;SDS011;7006;51.494;11.964;2023-08-20T14:27:21;12.33;;;11.30;;
13872;SDS011;7006;51.494;11.964;2023-08-20T14:29:49;11.33;;;10.27;;
13872;SDS011;7006;51.494;11.964;2023-08-20T14:32:20;11.23;;;10.23;;